sensor_id;sensor_type;location;lat;lon;timestamp;temperature;humidity
65836;SHT30;52595;51.608;7.216;2023-03-26T00:01:21;7.77;95.10
65836;SHT30;52595;51.608;7.216;2023-03-26T00:03:48;7.84;95.14
65836;SHT30;52595;51.608;7.216;2023-03-26T00:06:22;7.83;95.04
65836;SHT30;52595;51.608;7.216;2023-03-26T00:08:49;7.84;95.23
65836;SHT30;52595;51.608;7.216;2023-03-26T00:11:16;7.80;95.46
65836;SHT30;52595;51.608;7.216;2023-03-26T00:13:42;7.82;95.70
65836;SHT30;52595;51.608;7.216;2023-03-26T00:16:13;7.79;95.85
65836;SHT30;52595;51.608;7.216;2023-03-26T00:18:39;7.82;95.92
65836;SHT30;52595;51.608;7.216;2023-03-26T00:21:07;7.84;95.96
65836;SHT30;52595;51.608;7.216;2023-03-26T00:23:34;7.91;95.84
65836;SHT30;52595;51.608;7.216;2023-03-26T00:26:01;7.93;95.59
65836;SHT30;52595;51.608;7.216;2023-03-26T00:28:28;7.93;95.80
65836;SHT30;52595;51.608;7.216;2023-03-26T00:30:58;7.97;95.61
65836;SHT30;52595;51.608;7.216;2023-03-26T00:33:25;8.01;95.51
65836;SHT30;52595;51.608;7.216;2023-03-26T00:35:52;8.03;95.64
65836;SHT30;52595;51.608;7.216;2023-03-26T00:38:18;8.06;95.71
65836;SHT30;52595;51.608;7.216;2023-03-26T00:40:44;8.04;95.65
65836;SHT30;52595;51.608;7.216;2023-03-26T00:43:12;7.97;95.80
65836;SHT30;52595;51.608;7.216;2023-03-26T00:45:45;7.97;95.93
65836;SHT30;52595;51.608;7.216;2023-03-26T00:48:12;7.96;96.13
65836;SHT30;52595;51.608;7.216;2023-03-26T00:50:37;7.89;96.46
65836;SHT30;52595;51.608;7.216;2023-03-26T00:53:03;7.86;96.63
65836;SHT30;52595;51.608;7.216;2023-03-26T00:55:28;7.90;96.39
65836;SHT30;52595;51.608;7.216;2023-03-26T00:57:54;7.86;96.49
65836;SHT30;52595;51.608;7.216;2023-03-26T01:00:29;7.86;96.61
65836;SHT30;52595;51.608;7.216;2023-03-26T01:02:57;7.87;96.65
65836;SHT30;52595;51.608;7.216;2023-03-26T01:08:03;7.86;96.67
65836;SHT30;52595;51.608;7.216;2023-03-26T01:10:28;7.87;96.69
65836;SHT30;52595;51.608;7.216;2023-03-26T01:13:03;7.87;96.74
65836;SHT30;52595;51.608;7.216;2023-03-26T01:15:28;7.90;96.73
65836;SHT30;52595;51.608;7.216;2023-03-26T01:17:54;7.90;96.60
65836;SHT30;52595;51.608;7.216;2023-03-26T01:20:24;7.93;96.39
65836;SHT30;52595;51.608;7.216;2023-03-26T01:22:58;7.97;96.35
65836;SHT30;52595;51.608;7.216;2023-03-26T01:25:30;7.97;96.28
65836;SHT30;52595;51.608;7.216;2023-03-26T01:27:57;7.94;96.27
65836;SHT30;52595;51.608;7.216;2023-03-26T01:33:00;7.97;96.21
65836;SHT30;52595;51.608;7.216;2023-03-26T01:43:38;7.98;96.08
65836;SHT30;52595;51.608;7.216;2023-03-26T01:46:08;8.00;96.12
65836;SHT30;52595;51.608;7.216;2023-03-26T01:48:38;8.03;95.83
65836;SHT30;52595;51.608;7.216;2023-03-26T01:51:05;8.04;95.58
65836;SHT30;52595;51.608;7.216;2023-03-26T01:53:32;8.04;95.75
65836;SHT30;52595;51.608;7.216;2023-03-26T01:56:09;8.03;95.74
65836;SHT30;52595;51.608;7.216;2023-03-26T01:58:56;8.00;95.80
65836;SHT30;52595;51.608;7.216;2023-03-26T02:01:43;8.00;96.03
65836;SHT30;52595;51.608;7.216;2023-03-26T02:06:46;7.97;95.58
65836;SHT30;52595;51.608;7.216;2023-03-26T02:09:20;7.94;95.56
65836;SHT30;52595;51.608;7.216;2023-03-26T02:11:46;7.97;95.47
65836;SHT30;52595;51.608;7.216;2023-03-26T02:14:13;7.97;95.41
65836;SHT30;52595;51.608;7.216;2023-03-26T02:16:39;7.97;95.12
65836;SHT30;52595;51.608;7.216;2023-03-26T02:19:05;7.96;95.20
65836;SHT30;52595;51.608;7.216;2023-03-26T02:21:34;8.01;94.50
65836;SHT30;52595;51.608;7.216;2023-03-26T02:23:59;7.96;94.55
65836;SHT30;52595;51.608;7.216;2023-03-26T02:26:29;7.93;94.47
65836;SHT30;52595;51.608;7.216;2023-03-26T02:28:56;7.86;94.80
65836;SHT30;52595;51.608;7.216;2023-03-26T02:31:21;7.74;95.05
65836;SHT30;52595;51.608;7.216;2023-03-26T02:33:53;7.74;95.29
65836;SHT30;52595;51.608;7.216;2023-03-26T02:36:19;7.70;95.21
65836;SHT30;52595;51.608;7.216;2023-03-26T02:38:49;7.60;95.48
65836;SHT30;52595;51.608;7.216;2023-03-26T02:41:15;7.52;95.76
65836;SHT30;52595;51.608;7.216;2023-03-26T02:43:41;7.39;96.06
65836;SHT30;52595;51.608;7.216;2023-03-26T02:46:06;7.32;96.20
65836;SHT30;52595;51.608;7.216;2023-03-26T02:48:31;7.31;96.23
65836;SHT30;52595;51.608;7.216;2023-03-26T02:50:59;7.21;96.43
65836;SHT30;52595;51.608;7.216;2023-03-26T02:53:25;7.21;96.64
65836;SHT30;52595;51.608;7.216;2023-03-26T02:55:54;7.21;96.66
65836;SHT30;52595;51.608;7.216;2023-03-26T02:58:19;7.19;96.69
65836;SHT30;52595;51.608;7.216;2023-03-26T03:00:45;7.16;96.78
65836;SHT30;52595;51.608;7.216;2023-03-26T03:03:12;7.22;96.61
65836;SHT30;52595;51.608;7.216;2023-03-26T03:05:37;7.32;96.27
65836;SHT30;52595;51.608;7.216;2023-03-26T03:08:08;7.32;96.13
65836;SHT30;52595;51.608;7.216;2023-03-26T03:10:33;7.41;95.64
65836;SHT30;52595;51.608;7.216;2023-03-26T03:12:59;7.43;95.68
65836;SHT30;52595;51.608;7.216;2023-03-26T03:15:24;7.49;95.17
65836;SHT30;52595;51.608;7.216;2023-03-26T03:17:50;7.49;95.22
65836;SHT30;52595;51.608;7.216;2023-03-26T03:20:16;7.53;94.92
65836;SHT30;52595;51.608;7.216;2023-03-26T03:22:41;7.51;95.03
65836;SHT30;52595;51.608;7.216;2023-03-26T03:25:07;7.48;95.17
65836;SHT30;52595;51.608;7.216;2023-03-26T03:27:34;7.39;95.22
65836;SHT30;52595;51.608;7.216;2023-03-26T03:29:59;7.45;95.24
65836;SHT30;52595;51.608;7.216;2023-03-26T03:32:24;7.33;95.27
65836;SHT30;52595;51.608;7.216;2023-03-26T03:34:50;7.29;95.58
65836;SHT30;52595;51.608;7.216;2023-03-26T03:37:17;7.21;95.84
65836;SHT30;52595;51.608;7.216;2023-03-26T03:39:43;7.14;95.91
65836;SHT30;52595;51.608;7.216;2023-03-26T03:42:08;7.14;96.11
65836;SHT30;52595;51.608;7.216;2023-03-26T03:44:34;7.12;96.15
65836;SHT30;52595;51.608;7.216;2023-03-26T03:46:59;7.04;96.39
65836;SHT30;52595;51.608;7.216;2023-03-26T03:49:25;6.95;96.39
65836;SHT30;52595;51.608;7.216;2023-03-26T03:51:50;6.85;96.77
65836;SHT30;52595;51.608;7.216;2023-03-26T03:54:15;6.77;96.98
65836;SHT30;52595;51.608;7.216;2023-03-26T03:56:41;6.81;97.07
65836;SHT30;52595;51.608;7.216;2023-03-26T03:59:06;6.78;97.21
65836;SHT30;52595;51.608;7.216;2023-03-26T04:01:33;6.81;97.25
65836;SHT30;52595;51.608;7.216;2023-03-26T04:03:58;6.80;97.27
65836;SHT30;52595;51.608;7.216;2023-03-26T04:06:24;6.85;97.39
65836;SHT30;52595;51.608;7.216;2023-03-26T04:08:54;6.87;97.16
65836;SHT30;52595;51.608;7.216;2023-03-26T04:11:20;6.87;97.05
65836;SHT30;52595;51.608;7.216;2023-03-26T04:13:46;6.87;97.08
65836;SHT30;52595;51.608;7.216;2023-03-26T04:16:11;6.87;96.98
65836;SHT30;52595;51.608;7.216;2023-03-26T04:18:36;6.83;97.05
65836;SHT30;52595;51.608;7.216;2023-03-26T04:21:03;6.81;97.21
65836;SHT30;52595;51.608;7.216;2023-03-26T04:23:30;6.85;97.32
65836;SHT30;52595;51.608;7.216;2023-03-26T04:25:57;6.85;97.31
65836;SHT30;52595;51.608;7.216;2023-03-26T04:28:30;6.85;97.40
65836;SHT30;52595;51.608;7.216;2023-03-26T04:30:59;6.91;97.42
65836;SHT30;52595;51.608;7.216;2023-03-26T04:33:29;6.95;97.46
65836;SHT30;52595;51.608;7.216;2023-03-26T04:35:55;6.98;97.47
65836;SHT30;52595;51.608;7.216;2023-03-26T04:38:26;7.04;97.36
65836;SHT30;52595;51.608;7.216;2023-03-26T04:40:52;7.11;97.10
65836;SHT30;52595;51.608;7.216;2023-03-26T04:43:17;7.16;96.85
65836;SHT30;52595;51.608;7.216;2023-03-26T04:45:43;7.16;96.68
65836;SHT30;52595;51.608;7.216;2023-03-26T04:48:10;7.15;96.72
65836;SHT30;52595;51.608;7.216;2023-03-26T04:50:42;7.21;96.52
65836;SHT30;52595;51.608;7.216;2023-03-26T04:53:15;7.22;96.46
65836;SHT30;52595;51.608;7.216;2023-03-26T04:58:13;7.26;96.08
65836;SHT30;52595;51.608;7.216;2023-03-26T05:00:40;7.23;96.05
65836;SHT30;52595;51.608;7.216;2023-03-26T05:03:08;7.21;95.90
65836;SHT30;52595;51.608;7.216;2023-03-26T05:05:34;7.18;95.91
65836;SHT30;52595;51.608;7.216;2023-03-26T05:07:59;7.16;95.88
65836;SHT30;52595;51.608;7.216;2023-03-26T05:10:25;7.12;96.06
65836;SHT30;52595;51.608;7.216;2023-03-26T05:12:51;7.09;96.02
65836;SHT30;52595;51.608;7.216;2023-03-26T05:15:16;7.04;96.05
65836;SHT30;52595;51.608;7.216;2023-03-26T05:17:42;7.04;96.16
65836;SHT30;52595;51.608;7.216;2023-03-26T05:20:19;7.04;96.33
65836;SHT30;52595;51.608;7.216;2023-03-26T05:22:46;7.08;96.25
65836;SHT30;52595;51.608;7.216;2023-03-26T05:25:11;7.07;96.59
65836;SHT30;52595;51.608;7.216;2023-03-26T05:27:37;7.05;96.40
65836;SHT30;52595;51.608;7.216;2023-03-26T05:30:05;7.08;96.34
65836;SHT30;52595;51.608;7.216;2023-03-26T05:32:31;7.11;96.30
65836;SHT30;52595;51.608;7.216;2023-03-26T05:34:57;7.15;96.23
65836;SHT30;52595;51.608;7.216;2023-03-26T05:37:22;7.22;96.07
65836;SHT30;52595;51.608;7.216;2023-03-26T05:39:53;7.28;95.88
65836;SHT30;52595;51.608;7.216;2023-03-26T05:42:19;7.33;95.53
65836;SHT30;52595;51.608;7.216;2023-03-26T05:44:45;7.41;95.10
65836;SHT30;52595;51.608;7.216;2023-03-26T05:47:10;7.46;94.66
65836;SHT30;52595;51.608;7.216;2023-03-26T05:49:35;7.51;94.30
65836;SHT30;52595;51.608;7.216;2023-03-26T05:52:01;7.56;94.15
65836;SHT30;52595;51.608;7.216;2023-03-26T05:54:26;7.51;94.16
65836;SHT30;52595;51.608;7.216;2023-03-26T05:56:52;7.58;94.46
65836;SHT30;52595;51.608;7.216;2023-03-26T05:59:17;7.53;94.56
65836;SHT30;52595;51.608;7.216;2023-03-26T06:01:43;7.58;94.75
65836;SHT30;52595;51.608;7.216;2023-03-26T06:04:11;7.56;94.81
65836;SHT30;52595;51.608;7.216;2023-03-26T06:06:37;7.55;94.81
65836;SHT30;52595;51.608;7.216;2023-03-26T06:09:05;7.58;94.95
65836;SHT30;52595;51.608;7.216;2023-03-26T06:11:31;7.62;95.10
65836;SHT30;52595;51.608;7.216;2023-03-26T06:13:57;7.65;95.22
65836;SHT30;52595;51.608;7.216;2023-03-26T06:16:22;7.66;95.04
65836;SHT30;52595;51.608;7.216;2023-03-26T06:18:47;7.65;95.12
65836;SHT30;52595;51.608;7.216;2023-03-26T06:21:16;7.66;95.47
65836;SHT30;52595;51.608;7.216;2023-03-26T06:23:42;7.67;95.49
65836;SHT30;52595;51.608;7.216;2023-03-26T06:26:07;7.69;95.36
65836;SHT30;52595;51.608;7.216;2023-03-26T06:28:32;7.69;95.12
65836;SHT30;52595;51.608;7.216;2023-03-26T06:30:59;7.67;95.23
65836;SHT30;52595;51.608;7.216;2023-03-26T06:33:25;7.67;95.04
65836;SHT30;52595;51.608;7.216;2023-03-26T06:35:51;7.63;95.30
65836;SHT30;52595;51.608;7.216;2023-03-26T06:38:16;7.69;95.57
65836;SHT30;52595;51.608;7.216;2023-03-26T06:40:42;7.66;95.68
65836;SHT30;52595;51.608;7.216;2023-03-26T06:43:07;7.67;95.93
65836;SHT30;52595;51.608;7.216;2023-03-26T06:45:32;7.69;96.14
65836;SHT30;52595;51.608;7.216;2023-03-26T06:47:58;7.70;96.10
65836;SHT30;52595;51.608;7.216;2023-03-26T06:50:24;7.73;96.17
65836;SHT30;52595;51.608;7.216;2023-03-26T06:52:52;7.73;96.26
65836;SHT30;52595;51.608;7.216;2023-03-26T06:55:18;7.74;96.37
65836;SHT30;52595;51.608;7.216;2023-03-26T06:57:47;7.77;96.31
65836;SHT30;52595;51.608;7.216;2023-03-26T07:00:13;7.79;96.49
65836;SHT30;52595;51.608;7.216;2023-03-26T07:02:38;7.79;96.60
65836;SHT30;52595;51.608;7.216;2023-03-26T07:05:04;7.80;96.96
65836;SHT30;52595;51.608;7.216;2023-03-26T07:07:30;7.84;97.56
65836;SHT30;52595;51.608;7.216;2023-03-26T07:09:56;7.82;98.27
65836;SHT30;52595;51.608;7.216;2023-03-26T07:12:21;7.80;99.04
65836;SHT30;52595;51.608;7.216;2023-03-26T07:14:47;7.93;99.78
65836;SHT30;52595;51.608;7.216;2023-03-26T07:17:12;7.98;99.01
65836;SHT30;52595;51.608;7.216;2023-03-26T07:19:38;8.04;99.71
65836;SHT30;52595;51.608;7.216;2023-03-26T07:22:03;8.10;99.41
65836;SHT30;52595;51.608;7.216;2023-03-26T07:24:29;8.11;99.79
65836;SHT30;52595;51.608;7.216;2023-03-26T07:27:02;8.13;99.99
65836;SHT30;52595;51.608;7.216;2023-03-26T07:29:34;8.03;99.99
65836;SHT30;52595;51.608;7.216;2023-03-26T07:34:54;8.10;99.99
65836;SHT30;52595;51.608;7.216;2023-03-26T07:38:02;8.17;99.99
65836;SHT30;52595;51.608;7.216;2023-03-26T07:45:53;8.20;99.99
65836;SHT30;52595;51.608;7.216;2023-03-26T07:48:20;8.17;99.99
65836;SHT30;52595;51.608;7.216;2023-03-26T07:50:50;8.17;99.99
65836;SHT30;52595;51.608;7.216;2023-03-26T07:53:16;8.27;99.99
65836;SHT30;52595;51.608;7.216;2023-03-26T08:01:12;8.33;99.99
65836;SHT30;52595;51.608;7.216;2023-03-26T08:04:18;8.33;99.88
65836;SHT30;52595;51.608;7.216;2023-03-26T08:06:54;8.41;99.99
65836;SHT30;52595;51.608;7.216;2023-03-26T08:09:34;8.38;99.86
65836;SHT30;52595;51.608;7.216;2023-03-26T08:18:00;8.65;99.99
65836;SHT30;52595;51.608;7.216;2023-03-26T08:23:18;8.68;99.90
65836;SHT30;52595;51.608;7.216;2023-03-26T08:28:39;8.65;99.23
65836;SHT30;52595;51.608;7.216;2023-03-26T08:31:10;8.76;99.99
65836;SHT30;52595;51.608;7.216;2023-03-26T08:33:38;8.85;99.99
65836;SHT30;52595;51.608;7.216;2023-03-26T08:36:05;8.83;99.73
65836;SHT30;52595;51.608;7.216;2023-03-26T08:38:31;8.86;99.99
65836;SHT30;52595;51.608;7.216;2023-03-26T08:54:35;8.62;98.82
65836;SHT30;52595;51.608;7.216;2023-03-26T08:57:14;8.62;99.60
65836;SHT30;52595;51.608;7.216;2023-03-26T09:03:13;8.73;99.99
65836;SHT30;52595;51.608;7.216;2023-03-26T09:08:41;8.49;99.35
65836;SHT30;52595;51.608;7.216;2023-03-26T09:22:40;8.40;99.07
65836;SHT30;52595;51.608;7.216;2023-03-26T09:33:21;8.47;99.99
65836;SHT30;52595;51.608;7.216;2023-03-26T09:42:20;8.47;99.99
65836;SHT30;52595;51.608;7.216;2023-03-26T09:44:50;8.42;99.99
65836;SHT30;52595;51.608;7.216;2023-03-26T09:53:42;8.49;99.99
65836;SHT30;52595;51.608;7.216;2023-03-26T10:12:08;8.81;99.99
65836;SHT30;52595;51.608;7.216;2023-03-26T10:28:56;8.93;99.79
65836;SHT30;52595;51.608;7.216;2023-03-26T10:34:44;8.99;99.60
65836;SHT30;52595;51.608;7.216;2023-03-26T10:45:25;9.02;99.00
65836;SHT30;52595;51.608;7.216;2023-03-26T10:55:41;9.33;98.55
65836;SHT30;52595;51.608;7.216;2023-03-26T10:58:24;9.29;98.75
65836;SHT30;52595;51.608;7.216;2023-03-26T11:01:10;9.46;98.78
65836;SHT30;52595;51.608;7.216;2023-03-26T11:11:42;9.60;98.11
65836;SHT30;52595;51.608;7.216;2023-03-26T11:14:19;9.71;98.63
65836;SHT30;52595;51.608;7.216;2023-03-26T11:28:02;9.29;97.76
65836;SHT30;52595;51.608;7.216;2023-03-26T11:33:47;9.30;96.88
65836;SHT30;52595;51.608;7.216;2023-03-26T11:36:29;9.27;98.02
65836;SHT30;52595;51.608;7.216;2023-03-26T11:38:58;8.98;95.16
65836;SHT30;52595;51.608;7.216;2023-03-26T11:41:26;9.12;97.82
65836;SHT30;52595;51.608;7.216;2023-03-26T11:44:04;9.16;97.76
65836;SHT30;52595;51.608;7.216;2023-03-26T11:46:31;9.26;97.92
65836;SHT30;52595;51.608;7.216;2023-03-26T11:49:02;9.34;97.30
65836;SHT30;52595;51.608;7.216;2023-03-26T11:51:35;9.46;97.80
65836;SHT30;52595;51.608;7.216;2023-03-26T11:54:02;9.56;97.29
65836;SHT30;52595;51.608;7.216;2023-03-26T12:01:28;10.01;97.33
65836;SHT30;52595;51.608;7.216;2023-03-26T12:04:10;10.08;98.25
65836;SHT30;52595;51.608;7.216;2023-03-26T12:06:38;9.84;96.82
65836;SHT30;52595;51.608;7.216;2023-03-26T12:09:03;9.51;96.71
65836;SHT30;52595;51.608;7.216;2023-03-26T12:11:39;9.46;97.55
65836;SHT30;52595;51.608;7.216;2023-03-26T12:14:05;9.60;98.04
65836;SHT30;52595;51.608;7.216;2023-03-26T12:16:33;9.64;97.65
65836;SHT30;52595;51.608;7.216;2023-03-26T12:19:05;9.78;98.01
65836;SHT30;52595;51.608;7.216;2023-03-26T12:21:50;9.78;96.35
65836;SHT30;52595;51.608;7.216;2023-03-26T12:26:56;9.80;96.90
65836;SHT30;52595;51.608;7.216;2023-03-26T12:29:22;9.70;96.71
65836;SHT30;52595;51.608;7.216;2023-03-26T12:34:18;9.19;97.90
65836;SHT30;52595;51.608;7.216;2023-03-26T12:36:53;9.18;98.37
65836;SHT30;52595;51.608;7.216;2023-03-26T12:39:37;9.09;97.63
65836;SHT30;52595;51.608;7.216;2023-03-26T12:42:04;9.19;98.59
65836;SHT30;52595;51.608;7.216;2023-03-26T12:44:51;9.16;98.06
65836;SHT30;52595;51.608;7.216;2023-03-26T12:47:35;9.12;98.00
65836;SHT30;52595;51.608;7.216;2023-03-26T12:50:00;9.09;97.74
65836;SHT30;52595;51.608;7.216;2023-03-26T13:04:23;9.61;97.37
65836;SHT30;52595;51.608;7.216;2023-03-26T13:06:57;10.14;97.87
65836;SHT30;52595;51.608;7.216;2023-03-26T13:09:47;10.38;96.30
65836;SHT30;52595;51.608;7.216;2023-03-26T13:14:47;10.11;93.46
65836;SHT30;52595;51.608;7.216;2023-03-26T13:20:02;10.38;91.08
65836;SHT30;52595;51.608;7.216;2023-03-26T13:23:01;11.07;92.19
65836;SHT30;52595;51.608;7.216;2023-03-26T13:28:18;12.18;94.23
65836;SHT30;52595;51.608;7.216;2023-03-26T13:44:35;10.37;95.29
65836;SHT30;52595;51.608;7.216;2023-03-26T13:47:20;10.12;95.46
65836;SHT30;52595;51.608;7.216;2023-03-26T13:52:40;10.14;96.14
65836;SHT30;52595;51.608;7.216;2023-03-26T14:01:00;10.05;96.98
65836;SHT30;52595;51.608;7.216;2023-03-26T14:09:08;9.53;96.01
65836;SHT30;52595;51.608;7.216;2023-03-26T14:11:50;9.20;95.74
65836;SHT30;52595;51.608;7.216;2023-03-26T14:14:42;9.02;97.29
65836;SHT30;52595;51.608;7.216;2023-03-26T14:17:35;8.95;97.66
65836;SHT30;52595;51.608;7.216;2023-03-26T14:25:45;8.71;97.22
65836;SHT30;52595;51.608;7.216;2023-03-26T14:31:44;8.57;96.62
65836;SHT30;52595;51.608;7.216;2023-03-26T14:34:20;8.61;98.37
65836;SHT30;52595;51.608;7.216;2023-03-26T14:42:21;8.36;98.45
65836;SHT30;52595;51.608;7.216;2023-03-26T14:53:55;8.40;98.73
65836;SHT30;52595;51.608;7.216;2023-03-26T14:57:03;8.42;98.75
65836;SHT30;52595;51.608;7.216;2023-03-26T15:19:57;8.00;98.46
65836;SHT30;52595;51.608;7.216;2023-03-26T15:31:09;7.84;99.49
65836;SHT30;52595;51.608;7.216;2023-03-26T15:39:43;7.76;99.34
65836;SHT30;52595;51.608;7.216;2023-03-26T15:42:30;7.58;98.87
65836;SHT30;52595;51.608;7.216;2023-03-26T15:45:29;7.58;99.85
65836;SHT30;52595;51.608;7.216;2023-03-26T15:58:51;7.80;99.76
65836;SHT30;52595;51.608;7.216;2023-03-26T16:04:03;7.55;99.28
65836;SHT30;52595;51.608;7.216;2023-03-26T16:06:59;7.58;99.96
65836;SHT30;52595;51.608;7.216;2023-03-26T16:12:23;7.49;99.68
65836;SHT30;52595;51.608;7.216;2023-03-26T16:15:13;7.38;98.89
65836;SHT30;52595;51.608;7.216;2023-03-26T16:23:20;7.33;98.54
65836;SHT30;52595;51.608;7.216;2023-03-26T16:26:18;7.26;98.52
65836;SHT30;52595;51.608;7.216;2023-03-26T16:42:31;7.18;98.77
65836;SHT30;52595;51.608;7.216;2023-03-26T16:44:44;7.12;98.33
65836;SHT30;52595;51.608;7.216;2023-03-26T16:47:35;7.15;99.19
65836;SHT30;52595;51.608;7.216;2023-03-26T16:56:27;6.97;97.97
65836;SHT30;52595;51.608;7.216;2023-03-26T16:59:00;6.88;97.55
65836;SHT30;52595;51.608;7.216;2023-03-26T17:01:44;6.80;97.89
65836;SHT30;52595;51.608;7.216;2023-03-26T17:04:17;6.76;97.40
65836;SHT30;52595;51.608;7.216;2023-03-26T17:12:13;6.66;97.69
65836;SHT30;52595;51.608;7.216;2023-03-26T17:18:02;6.64;96.19
65836;SHT30;52595;51.608;7.216;2023-03-26T17:20:41;6.66;94.58
65836;SHT30;52595;51.608;7.216;2023-03-26T17:23:32;6.68;94.65
65836;SHT30;52595;51.608;7.216;2023-03-26T17:26:23;6.80;93.89
65836;SHT30;52595;51.608;7.216;2023-03-26T17:42:29;6.88;89.78
65836;SHT30;52595;51.608;7.216;2023-03-26T17:45:16;6.84;90.30
65836;SHT30;52595;51.608;7.216;2023-03-26T17:48:15;6.85;90.75
65836;SHT30;52595;51.608;7.216;2023-03-26T17:50:52;6.84;89.72
65836;SHT30;52595;51.608;7.216;2023-03-26T17:53:22;6.83;90.03
65836;SHT30;52595;51.608;7.216;2023-03-26T17:55:49;6.83;90.05
65836;SHT30;52595;51.608;7.216;2023-03-26T18:01:01;6.68;88.89
65836;SHT30;52595;51.608;7.216;2023-03-26T18:03:34;6.58;88.73
65836;SHT30;52595;51.608;7.216;2023-03-26T18:06:10;6.48;88.90
65836;SHT30;52595;51.608;7.216;2023-03-26T18:14:52;6.33;89.37
65836;SHT30;52595;51.608;7.216;2023-03-26T18:17:22;6.30;89.44
65836;SHT30;52595;51.608;7.216;2023-03-26T18:19:54;6.36;89.30
65836;SHT30;52595;51.608;7.216;2023-03-26T18:22:25;6.36;88.80
65836;SHT30;52595;51.608;7.216;2023-03-26T18:24:57;6.34;88.79
65836;SHT30;52595;51.608;7.216;2023-03-26T18:27:25;6.37;89.60
65836;SHT30;52595;51.608;7.216;2023-03-26T18:32:22;6.34;88.35
65836;SHT30;52595;51.608;7.216;2023-03-26T18:35:12;6.33;88.23
65836;SHT30;52595;51.608;7.216;2023-03-26T18:37:39;6.34;88.34
65836;SHT30;52595;51.608;7.216;2023-03-26T18:40:13;6.30;87.97
65836;SHT30;52595;51.608;7.216;2023-03-26T18:42:46;6.27;87.70
65836;SHT30;52595;51.608;7.216;2023-03-26T18:47:47;6.33;87.39
65836;SHT30;52595;51.608;7.216;2023-03-26T18:50:16;6.29;86.10
65836;SHT30;52595;51.608;7.216;2023-03-26T18:52:43;6.30;85.46
65836;SHT30;52595;51.608;7.216;2023-03-26T18:55:11;6.27;86.02
65836;SHT30;52595;51.608;7.216;2023-03-26T18:57:38;6.24;85.51
65836;SHT30;52595;51.608;7.216;2023-03-26T19:00:15;6.24;86.29
65836;SHT30;52595;51.608;7.216;2023-03-26T19:02:43;6.22;86.68
65836;SHT30;52595;51.608;7.216;2023-03-26T19:05:13;6.26;84.94
65836;SHT30;52595;51.608;7.216;2023-03-26T19:07:39;6.23;83.55
65836;SHT30;52595;51.608;7.216;2023-03-26T19:10:06;6.19;84.45
65836;SHT30;52595;51.608;7.216;2023-03-26T19:12:32;6.19;83.81
65836;SHT30;52595;51.608;7.216;2023-03-26T19:17:31;6.19;83.25
65836;SHT30;52595;51.608;7.216;2023-03-26T19:19:58;6.23;81.71
65836;SHT30;52595;51.608;7.216;2023-03-26T19:22:25;6.17;81.85
65836;SHT30;52595;51.608;7.216;2023-03-26T19:24:55;6.20;81.25
65836;SHT30;52595;51.608;7.216;2023-03-26T19:27:22;6.19;81.34
65836;SHT30;52595;51.608;7.216;2023-03-26T19:29:47;6.19;82.07
65836;SHT30;52595;51.608;7.216;2023-03-26T19:32:50;6.14;81.50
65836;SHT30;52595;51.608;7.216;2023-03-26T19:35:19;6.13;81.45
65836;SHT30;52595;51.608;7.216;2023-03-26T19:37:50;6.10;80.96
65836;SHT30;52595;51.608;7.216;2023-03-26T19:40:18;6.10;81.99
65836;SHT30;52595;51.608;7.216;2023-03-26T19:42:43;6.12;81.02
65836;SHT30;52595;51.608;7.216;2023-03-26T19:45:16;6.06;81.74
65836;SHT30;52595;51.608;7.216;2023-03-26T19:47:42;6.02;80.96
65836;SHT30;52595;51.608;7.216;2023-03-26T19:50:29;5.98;80.67
65836;SHT30;52595;51.608;7.216;2023-03-26T19:55:39;5.93;80.94
65836;SHT30;52595;51.608;7.216;2023-03-26T19:58:08;5.88;81.23
65836;SHT30;52595;51.608;7.216;2023-03-26T20:00:34;5.88;79.42
65836;SHT30;52595;51.608;7.216;2023-03-26T20:02:59;5.85;77.94
65836;SHT30;52595;51.608;7.216;2023-03-26T20:05:30;5.83;79.09
65836;SHT30;52595;51.608;7.216;2023-03-26T20:07:57;5.79;77.97
65836;SHT30;52595;51.608;7.216;2023-03-26T20:10:24;5.75;77.29
65836;SHT30;52595;51.608;7.216;2023-03-26T20:12:50;5.69;76.91
65836;SHT30;52595;51.608;7.216;2023-03-26T20:15:23;5.68;77.25
65836;SHT30;52595;51.608;7.216;2023-03-26T20:17:49;5.63;78.06
65836;SHT30;52595;51.608;7.216;2023-03-26T20:20:18;5.52;76.38
65836;SHT30;52595;51.608;7.216;2023-03-26T20:22:44;5.49;76.83
65836;SHT30;52595;51.608;7.216;2023-03-26T20:25:17;5.45;76.92
65836;SHT30;52595;51.608;7.216;2023-03-26T20:27:44;5.38;76.34
65836;SHT30;52595;51.608;7.216;2023-03-26T20:30:10;5.32;76.31
65836;SHT30;52595;51.608;7.216;2023-03-26T20:32:36;5.27;76.12
65836;SHT30;52595;51.608;7.216;2023-03-26T20:35:14;5.24;76.42
65836;SHT30;52595;51.608;7.216;2023-03-26T20:37:40;5.17;76.19
65836;SHT30;52595;51.608;7.216;2023-03-26T20:40:06;5.10;77.03
65836;SHT30;52595;51.608;7.216;2023-03-26T20:42:32;5.00;77.59
65836;SHT30;52595;51.608;7.216;2023-03-26T20:45:00;4.93;77.39
65836;SHT30;52595;51.608;7.216;2023-03-26T20:47:26;4.83;77.39
65836;SHT30;52595;51.608;7.216;2023-03-26T20:49:51;4.76;77.86
65836;SHT30;52595;51.608;7.216;2023-03-26T20:52:16;4.56;78.72
65836;SHT30;52595;51.608;7.216;2023-03-26T20:54:43;4.46;79.03
65836;SHT30;52595;51.608;7.216;2023-03-26T20:57:09;4.33;79.55
65836;SHT30;52595;51.608;7.216;2023-03-26T20:59:36;4.19;79.82
65836;SHT30;52595;51.608;7.216;2023-03-26T21:02:01;4.12;80.75
65836;SHT30;52595;51.608;7.216;2023-03-26T21:04:27;4.05;80.83
65836;SHT30;52595;51.608;7.216;2023-03-26T21:06:53;3.99;81.19
65836;SHT30;52595;51.608;7.216;2023-03-26T21:09:19;3.92;81.93
65836;SHT30;52595;51.608;7.216;2023-03-26T21:14:23;3.92;81.34
65836;SHT30;52595;51.608;7.216;2023-03-26T21:16:49;3.82;81.77
65836;SHT30;52595;51.608;7.216;2023-03-26T21:19:16;3.71;83.01
65836;SHT30;52595;51.608;7.216;2023-03-26T21:27:18;3.54;83.74
65836;SHT30;52595;51.608;7.216;2023-03-26T21:29:49;3.46;84.38
65836;SHT30;52595;51.608;7.216;2023-03-26T21:32:16;3.43;85.07
65836;SHT30;52595;51.608;7.216;2023-03-26T21:34:42;3.41;84.78
65836;SHT30;52595;51.608;7.216;2023-03-26T21:37:08;3.31;85.47
65836;SHT30;52595;51.608;7.216;2023-03-26T21:39:33;3.26;85.80
65836;SHT30;52595;51.608;7.216;2023-03-26T21:41:59;3.33;85.36
65836;SHT30;52595;51.608;7.216;2023-03-26T21:44:25;3.36;84.94
65836;SHT30;52595;51.608;7.216;2023-03-26T21:46:51;3.37;84.38
65836;SHT30;52595;51.608;7.216;2023-03-26T21:49:17;3.34;84.71
65836;SHT30;52595;51.608;7.216;2023-03-26T21:51:43;3.26;85.13
65836;SHT30;52595;51.608;7.216;2023-03-26T21:54:27;3.16;85.39
65836;SHT30;52595;51.608;7.216;2023-03-26T22:00:12;3.10;85.18
65836;SHT30;52595;51.608;7.216;2023-03-26T22:08:00;2.91;85.83
65836;SHT30;52595;51.608;7.216;2023-03-26T22:10:28;2.83;86.00
65836;SHT30;52595;51.608;7.216;2023-03-26T22:12:54;2.73;86.34
65836;SHT30;52595;51.608;7.216;2023-03-26T22:15:19;2.62;86.76
65836;SHT30;52595;51.608;7.216;2023-03-26T22:17:46;2.61;87.01
65836;SHT30;52595;51.608;7.216;2023-03-26T22:20:18;2.69;86.33
65836;SHT30;52595;51.608;7.216;2023-03-26T22:22:46;2.79;85.98
65836;SHT30;52595;51.608;7.216;2023-03-26T22:25:16;2.76;86.15
65836;SHT30;52595;51.608;7.216;2023-03-26T22:27:45;2.78;85.78